Time;durP1;ratioP1;P1;durP2;ratioP2;P2;SDS_P1;SDS_P2;PMS_P1;PMS_P2;Temp;Humidity;BMP_temperature;BMP_pressure;BME280_temperature;BME280_humidity;BME280_pressure;Samples;Min_cycle;Max_cycle;Signal;HPM_P1;HPM_P2
2022/03/13 00:00:04;;;;;;;9.25;3.45;;;;;;;-7.91;63.12;97538.59;5113650;28;20416;-67
2022/03/13 00:02:29;;;;;;;4.25;3.35;;;;;;;-8.00;63.30;97547.50;5113746;28;20065;-67
2022/03/13 00:04:56;;;;;;;7.55;3.92;;;;;;;-8.03;63.76;97538.84;5113512;28;20114;-67
2022/03/13 00:07:25;;;;;;;4.85;3.70;;;;;;;-8.17;63.80;97536.47;5113619;28;20030;-67
2022/03/13 00:09:51;;;;;;;8.10;5.72;;;;;;;-8.17;64.01;97535.56;5113580;28;20462;-68
2022/03/13 00:12:29;;;;;;;6.13;4.15;;;;;;;-8.15;64.38;97527.25;5113547;28;20031;-67
2022/03/13 00:14:56;;;;;;;4.57;3.45;;;;;;;-8.16;64.06;97525.50;5113633;28;20431;-67
2022/03/13 00:17:29;;;;;;;7.30;5.78;;;;;;;-8.17;64.37;97526.31;5113535;28;20377;-67
2022/03/13 00:20:02;;;;;;;4.78;3.65;;;;;;;-8.18;64.23;97516.94;5113308;28;20034;-67
2022/03/13 00:22:31;;;;;;;12.35;3.45;;;;;;;-8.22;64.09;97516.69;5113437;28;20110;-67
2022/03/13 00:24:59;;;;;;;4.85;3.10;;;;;;;-8.31;64.55;97515.41;5113328;28;20059;-67
2022/03/13 00:27:25;;;;;;;8.05;3.10;;;;;;;-8.38;64.72;97501.56;5113411;28;20081;-67
2022/03/13 00:29:51;;;;;;;4.63;3.20;;;;;;;-8.39;64.47;97506.53;5113464;28;20088;-67
2022/03/13 00:32:17;;;;;;;4.38;2.90;;;;;;;-8.52;64.83;97505.88;5114187;28;20501;-67
2022/03/13 00:34:43;;;;;;;3.03;2.72;;;;;;;-8.62;65.39;97506.22;5117521;28;21213;-68
2022/03/13 00:37:10;;;;;;;4.95;3.13;;;;;;;-8.58;65.06;97497.97;5117500;27;20043;-68
2022/03/13 00:39:36;;;;;;;3.90;3.22;;;;;;;-8.53;64.95;97503.28;5117465;28;20027;-68
2022/03/13 00:42:02;;;;;;;4.93;3.10;;;;;;;-8.60;64.97;97504.66;5117584;28;20024;-67
2022/03/13 00:44:28;;;;;;;5.00;3.53;;;;;;;-8.60;65.39;97499.59;5117651;28;20053;-68
2022/03/13 00:46:53;;;;;;;5.00;3.33;;;;;;;-8.63;65.37;97495.22;5117385;28;20019;-68
2022/03/13 00:49:20;;;;;;;4.90;3.78;;;;;;;-8.62;65.08;97498.63;5117388;28;20095;-67
2022/03/13 00:51:45;;;;;;;5.18;3.45;;;;;;;-8.60;65.53;97498.69;5117316;28;20024;-67
2022/03/13 00:54:11;;;;;;;4.63;3.33;;;;;;;-8.59;65.43;97487.75;5117236;28;20027;-67
2022/03/13 00:56:36;;;;;;;4.95;3.15;;;;;;;-8.60;65.58;97486.00;5117163;28;20114;-67
2022/03/13 00:59:02;;;;;;;3.40;2.63;;;;;;;-8.63;65.81;97492.69;5117103;28;20047;-67
2022/03/13 01:01:28;;;;;;;4.88;3.10;;;;;;;-8.63;65.80;97487.63;5117238;28;20128;-67
2022/03/13 01:03:53;;;;;;;3.85;2.58;;;;;;;-8.66;65.92;97490.00;5117302;28;20098;-67
2022/03/13 01:06:21;;;;;;;5.80;3.83;;;;;;;-8.73;65.95;97492.13;5117039;28;20027;-68
2022/03/13 01:08:47;;;;;;;9.27;5.43;;;;;;;-8.80;66.54;97486.72;5116903;28;20024;-67
2022/03/13 01:11:21;;;;;;;8.50;5.13;;;;;;;-8.70;66.33;97489.75;5116834;28;20484;-68
2022/03/13 01:13:47;;;;;;;6.20;5.47;;;;;;;-8.70;66.31;97487.22;5116989;28;20031;-68
2022/03/13 01:16:19;;;;;;;6.05;4.45;;;;;;;-8.71;66.58;97488.88;5116869;28;20020;-67
2022/03/13 01:18:52;;;;;;;7.75;4.28;;;;;;;-8.70;66.48;97482.97;5116890;28;20031;-67
2022/03/13 01:21:19;;;;;;;5.35;3.30;;;;;;;-8.65;66.61;97491.72;5116516;28;20051;-67
2022/03/13 01:24:00;;;;;;;6.25;4.72;;;;;;;-8.74;66.50;97493.78;5115384;28;20475;-67
2022/03/13 01:26:26;;;;;;;5.82;4.05;;;;;;;-8.72;66.81;97486.25;5116720;27;20077;-67
2022/03/13 01:28:55;;;;;;;6.60;4.90;;;;;;;-8.73;66.87;97487.94;5115440;28;20031;-67
2022/03/13 01:31:29;;;;;;;6.18;4.07;;;;;;;-8.70;66.69;97485.53;5116619;28;20396;-67
2022/03/13 01:33:56;;;;;;;7.20;5.13;;;;;;;-8.71;66.88;97476.16;5116603;28;20039;-67
2022/03/13 01:36:22;;;;;;;7.03;4.28;;;;;;;-8.75;67.10;97476.81;5116404;28;20051;-67
2022/03/13 01:38:47;;;;;;;8.25;4.18;;;;;;;-8.74;66.82;97477.69;5115113;28;20105;-66
2022/03/13 01:41:13;;;;;;;6.68;4.80;;;;;;;-8.76;66.66;97478.47;5116478;28;20362;-67
2022/03/13 01:43:38;;;;;;;6.22;4.28;;;;;;;-8.79;66.77;97485.06;5115701;28;20119;-67
2022/03/13 01:46:04;;;;;;;7.45;4.13;;;;;;;-8.73;66.84;97477.78;5116069;28;20042;-67
2022/03/13 01:48:39;;;;;;;4.97;3.33;;;;;;;-8.72;66.91;97481.16;5116228;28;20020;-67
2022/03/13 01:51:08;;;;;;;8.38;3.33;;;;;;;-8.80;66.76;97471.50;5116152;28;20030;-67
2022/03/13 01:53:34;;;;;;;4.32;3.08;;;;;;;-8.78;66.78;97469.03;5116106;28;20035;-67
2022/03/13 01:56:00;;;;;;;6.20;3.42;;;;;;;-8.80;66.84;97463.88;5116235;27;20031;-67
2022/03/13 01:58:25;;;;;;;3.63;3.30;;;;;;;-8.72;66.44;97465.94;5114800;28;20381;-67
2022/03/13 02:00:51;;;;;;;6.38;3.60;;;;;;;-8.71;66.47;97467.69;5115870;28;20481;-67
2022/03/13 02:03:17;;;;;;;4.13;3.10;;;;;;;-8.85;66.70;97472.94;5115849;28;20032;-67
2022/03/13 02:05:44;;;;;;;4.47;3.25;;;;;;;-8.88;67.21;97465.16;5115848;28;20544;-67
2022/03/13 02:08:18;;;;;;;4.18;2.90;;;;;;;-8.89;67.23;97473.53;5115973;28;20373;-67
2022/03/13 02:10:44;;;;;;;6.32;3.60;;;;;;;-8.94;67.20;97470.75;5115765;28;20393;-67
2022/03/13 02:13:13;;;;;;;5.05;3.00;;;;;;;-8.89;67.17;97469.34;5115754;28;20027;-67
2022/03/13 02:15:38;;;;;;;7.88;4.10;;;;;;;-8.91;67.08;97470.91;5115693;28;20031;-67
2022/03/13 02:18:05;;;;;;;6.22;4.30;;;;;;;-8.89;67.10;97465.91;5115662;28;20020;-67
2022/03/13 02:20:38;;;;;;;6.30;3.78;;;;;;;-8.87;66.87;97464.34;5115713;28;20035;-67
2022/03/13 02:23:20;;;;;;;6.72;3.08;;;;;;;-9.01;67.08;97464.47;5115543;28;20023;-67
2022/03/13 02:25:51;;;;;;;5.45;3.28;;;;;;;-9.04;67.26;97471.03;5115508;28;20473;-67
2022/03/13 02:28:23;;;;;;;4.22;3.13;;;;;;;-8.99;67.42;97469.63;5115453;28;20423;-67
2022/03/13 02:30:50;;;;;;;5.63;3.40;;;;;;;-9.06;67.51;97454.88;5115541;28;20028;-66
2022/03/13 02:33:20;;;;;;;5.22;4.28;;;;;;;-9.03;67.66;97452.50;5115258;28;20088;-67
2022/03/13 02:36:00;;;;;;;4.90;3.38;;;;;;;-9.11;67.60;97453.75;5115281;28;20027;-67
2022/03/13 02:38:28;;;;;;;6.47;3.60;;;;;;;-9.10;67.72;97450.44;5115383;28;20028;-68
2022/03/13 02:40:55;;;;;;;3.97;2.97;;;;;;;-9.05;67.69;97449.00;5115228;28;20098;-67
2022/03/13 02:43:21;;;;;;;4.63;3.22;;;;;;;-9.15;67.78;97445.13;5115151;28;20024;-68
2022/03/13 02:45:47;;;;;;;4.88;3.28;;;;;;;-9.11;67.94;97452.09;5114984;28;20034;-67
2022/03/13 02:48:16;;;;;;;5.85;3.58;;;;;;;-9.09;67.84;97453.06;5115017;28;20362;-68
2022/03/13 02:50:41;;;;;;;5.88;3.88;;;;;;;-9.09;67.83;97455.59;5114950;28;20055;-68
2022/03/13 02:53:08;;;;;;;6.28;4.40;;;;;;;-9.09;67.89;97459.78;5114949;28;20108;-68
2022/03/13 02:55:34;;;;;;;7.28;4.63;;;;;;;-9.08;67.81;97457.34;5114082;28;20016;-67
2022/03/13 02:57:59;;;;;;;5.63;3.70;;;;;;;-9.00;67.68;97457.75;5114825;28;20034;-67
2022/03/13 03:00:49;;;;;;;4.00;3.00;;;;;;;-9.09;67.50;97449.66;5114744;28;20020;-68
2022/03/13 03:03:17;;;;;;;4.80;2.78;;;;;;;-9.21;67.82;97460.00;5114720;28;20478;-67
2022/03/13 03:05:43;;;;;;;4.25;3.10;;;;;;;-9.23;68.24;97459.91;5114571;28;20024;-67
2022/03/13 03:08:09;;;;;;;9.35;3.58;;;;;;;-9.21;68.14;97460.88;5114703;28;20046;-67
2022/03/13 03:10:36;;;;;;;4.28;2.75;;;;;;;-9.20;67.94;97455.00;5114655;28;20533;-67
2022/03/13 03:13:02;;;;;;;9.57;3.03;;;;;;;-9.24;67.92;97453.09;5114730;28;20461;-67
2022/03/13 03:15:28;;;;;;;4.07;3.08;;;;;;;-9.26;68.05;97444.53;5114487;28;20031;-67
2022/03/13 03:17:53;;;;;;;5.32;2.95;;;;;;;-9.30;68.03;97445.16;5114398;28;20023;-66
2022/03/13 03:20:20;;;;;;;4.78;3.17;;;;;;;-9.31;67.94;97448.47;5114150;28;20040;-66
2022/03/13 03:22:47;;;;;;;3.50;2.60;;;;;;;-9.32;68.13;97441.66;5114316;28;20472;-67
2022/03/13 03:25:13;;;;;;;5.38;3.25;;;;;;;-9.29;67.97;97442.72;5114263;28;20062;-66
2022/03/13 03:27:41;;;;;;;4.80;2.78;;;;;;;-9.29;67.94;97431.69;5114232;28;20493;-67
2022/03/13 03:30:08;;;;;;;3.78;2.80;;;;;;;-9.22;67.78;97436.28;5114290;28;20031;-67
2022/03/13 03:32:33;;;;;;;3.53;2.70;;;;;;;-9.20;67.81;97429.66;5114215;28;20055;-67
2022/03/13 03:34:59;;;;;;;4.50;2.58;;;;;;;-9.22;66.72;97426.16;5114074;28;20538;-67
2022/03/13 03:37:25;;;;;;;4.13;2.90;;;;;;;-9.18;66.89;97427.22;5114066;27;20031;-67
2022/03/13 03:39:51;;;;;;;5.07;3.10;;;;;;;-9.25;67.00;97428.53;5114097;27;20020;-67
2022/03/13 03:42:17;;;;;;;3.88;2.80;;;;;;;-9.29;67.38;97429.16;5113952;28;20477;-67
2022/03/13 03:44:42;;;;;;;4.30;2.30;;;;;;;-9.24;67.59;97429.41;5113732;28;20016;-67
2022/03/13 03:47:08;;;;;;;4.10;3.08;;;;;;;-9.29;67.88;97424.97;5113888;28;20030;-67
2022/03/13 03:49:34;;;;;;;9.02;5.43;;;;;;;-9.33;67.81;97425.59;5113884;28;20023;-67
2022/03/13 03:52:00;;;;;;;6.13;4.07;;;;;;;-9.31;67.90;97411.31;5113787;28;20022;-67
2022/03/13 03:54:25;;;;;;;4.43;3.28;;;;;;;-9.28;67.94;97418.22;5113741;28;20098;-67
2022/03/13 03:56:51;;;;;;;4.97;3.33;;;;;;;-9.23;68.05;97419.34;5113728;28;20062;-67
2022/03/13 03:59:19;;;;;;;4.85;3.65;;;;;;;-9.24;68.03;97414.19;5113637;28;20377;-67
2022/03/13 04:01:44;;;;;;;4.40;3.28;;;;;;;-9.19;68.00;97420.38;5113672;28;20019;-67
2022/03/13 04:04:10;;;;;;;5.55;3.40;;;;;;;-9.17;67.81;97418.81;5113645;28;20031;-68
2022/03/13 04:06:40;;;;;;;4.43;3.03;;;;;;;-9.24;67.87;97420.16;5112013;28;20038;-67
2022/03/13 04:09:11;;;;;;;5.15;3.03;;;;;;;-9.23;68.23;97421.00;5113734;28;20034;-67
2022/03/13 04:11:37;;;;;;;4.60;3.35;;;;;;;-9.35;68.84;97416.13;5113595;28;20115;-67
2022/03/13 04:14:03;;;;;;;4.35;3.30;;;;;;;-9.31;68.97;97421.47;5113526;28;20416;-68
2022/03/13 04:16:29;;;;;;;5.55;3.65;;;;;;;-9.27;69.41;97425.91;5113578;28;20030;-67
2022/03/13 04:18:55;;;;;;;5.72;4.15;;;;;;;-9.24;69.28;97425.22;5113588;28;20016;-67
2022/03/13 04:21:22;;;;;;;4.75;3.75;;;;;;;-9.13;69.52;97431.72;5113254;28;20039;-68
2022/03/13 04:23:49;;;;;;;8.55;3.70;;;;;;;-9.07;69.32;97430.28;5113487;28;20098;-67
2022/03/13 04:26:15;;;;;;;4.15;3.08;;;;;;;-8.98;68.92;97428.25;5113388;28;20061;-68
2022/03/13 04:28:40;;;;;;;4.88;3.28;;;;;;;-8.90;69.28;97429.56;5113496;28;20051;-68
2022/03/13 04:31:08;;;;;;;3.60;2.53;;;;;;;-8.80;69.06;97423.28;5113604;28;20035;-68
2022/03/13 04:33:35;;;;;;;5.65;3.35;;;;;;;-8.70;69.03;97427.16;5113417;28;20023;-68
2022/03/13 04:36:06;;;;;;;8.25;4.45;;;;;;;-8.63;68.76;97429.25;5113331;28;20020;-68
2022/03/13 04:38:31;;;;;;;;;;;;;;;-8.55;68.74;97433.84;5113788;28;20466;-68
2022/03/13 04:40:57;;;;;;;8.23;4.68;;;;;;;-8.48;68.78;97437.50;5113366;28;19912;-68
2022/03/13 04:43:23;;;;;;;5.65;3.42;;;;;;;-8.40;68.69;97432.03;5113364;28;20149;-67
2022/03/13 04:45:51;;;;;;;4.72;2.88;;;;;;;-8.37;68.74;97429.66;5113245;28;20031;-67
2022/03/13 04:48:18;;;;;;;4.45;2.90;;;;;;;-8.34;68.54;97428.94;5113227;28;20054;-67
2022/03/13 04:50:44;;;;;;;3.70;2.83;;;;;;;-8.34;68.40;97430.63;5113446;28;20115;-67
2022/03/13 04:53:10;;;;;;;7.72;3.45;;;;;;;-8.40;68.05;97429.50;5113379;28;20027;-67
2022/03/13 04:55:36;;;;;;;7.72;3.35;;;;;;;-8.25;68.27;97433.63;5113298;28;20351;-68
2022/03/13 04:58:02;;;;;;;4.35;2.88;;;;;;;-8.21;68.19;97435.53;5113224;28;20019;-68
2022/03/13 05:00:27;;;;;;;4.45;3.08;;;;;;;-8.22;68.31;97441.38;5113150;28;20031;-67
2022/03/13 05:02:55;;;;;;;4.38;2.70;;;;;;;-8.05;68.38;97444.78;5113096;28;20023;-68
2022/03/13 05:05:21;;;;;;;3.90;2.78;;;;;;;-7.94;68.24;97440.22;5113043;28;20114;-68
2022/03/13 05:07:47;;;;;;;4.90;2.88;;;;;;;-7.91;67.97;97434.41;5113199;28;20030;-67
2022/03/13 05:10:13;;;;;;;3.70;3.33;;;;;;;-7.88;68.06;97440.53;5113160;28;20098;-67
2022/03/13 05:12:39;;;;;;;4.07;2.72;;;;;;;-7.79;68.58;97439.22;5113028;28;20099;-67
2022/03/13 05:15:05;;;;;;;5.30;3.08;;;;;;;-7.67;68.44;97437.28;5113075;28;20055;-67
2022/03/13 05:17:31;;;;;;;4.63;2.88;;;;;;;-7.56;67.53;97440.31;5112915;28;20078;-67
2022/03/13 05:19:56;;;;;;;4.55;3.30;;;;;;;-7.42;67.92;97435.00;5116007;28;20023;-67
2022/03/13 05:22:22;;;;;;;4.32;2.95;;;;;;;-7.27;67.70;97439.94;5116714;28;20032;-68
2022/03/13 05:24:48;;;;;;;4.45;2.97;;;;;;;-7.12;67.55;97435.59;5116702;28;20030;-68
2022/03/13 05:27:13;;;;;;;4.00;2.58;;;;;;;-6.88;67.10;97436.63;5116725;28;20102;-68
2022/03/13 05:29:39;;;;;;;3.88;2.83;;;;;;;-6.62;66.23;97442.03;5116569;28;20019;-67
2022/03/13 05:32:05;;;;;;;3.90;2.70;;;;;;;-6.32;65.57;97445.81;5116456;28;20524;-67
2022/03/13 05:34:31;;;;;;;2.88;2.17;;;;;;;-6.07;65.01;97442.66;5116522;28;20051;-67
2022/03/13 05:36:57;;;;;;;3.70;2.58;;;;;;;-5.85;64.19;97443.50;5116416;28;20110;-67
2022/03/13 05:39:22;;;;;;;3.47;2.70;;;;;;;-5.61;63.85;97447.84;5116419;28;20028;-68
2022/03/13 05:41:48;;;;;;;3.55;2.53;;;;;;;-5.35;63.23;97441.25;5116518;27;20023;-67
2022/03/13 05:44:15;;;;;;;3.72;3.08;;;;;;;-5.10;61.79;97447.31;5116447;28;20024;-68
2022/03/13 05:46:41;;;;;;;3.50;2.70;;;;;;;-4.71;61.61;97450.44;5116179;28;20031;-67
2022/03/13 05:49:08;;;;;;;3.63;2.30;;;;;;;-4.07;59.73;97445.88;5116257;28;20027;-67
2022/03/13 05:51:36;;;;;;;3.90;2.60;;;;;;;-3.63;57.69;97456.69;5116143;27;20488;-67
2022/03/13 05:54:04;;;;;;;3.75;2.90;;;;;;;-3.28;56.16;97458.63;5116172;28;20038;-67
2022/03/13 05:56:30;;;;;;;6.10;4.20;;;;;;;-2.84;56.20;97465.94;5116218;28;20369;-68
2022/03/13 05:58:56;;;;;;;4.60;3.15;;;;;;;-2.41;54.42;97459.50;5116089;28;20099;-67
2022/03/13 06:01:22;;;;;;;4.75;2.90;;;;;;;-2.00;54.23;97462.28;5116183;28;20076;-68
2022/03/13 06:03:47;;;;;;;3.50;2.72;;;;;;;-1.34;51.72;97462.22;5115949;28;20072;-67
2022/03/13 06:06:14;;;;;;;3.90;2.72;;;;;;;-0.31;48.88;97465.34;5115831;28;20028;-68
2022/03/13 06:08:39;;;;;;;3.78;3.08;;;;;;;0.90;47.24;97449.41;5115985;28;20064;-68
2022/03/13 06:11:05;;;;;;;5.60;3.05;;;;;;;2.53;43.43;97456.47;5115907;28;20032;-69
2022/03/13 06:13:31;;;;;;;4.03;2.83;;;;;;;4.23;37.49;97466.00;5115852;28;20522;-69
2022/03/13 06:15:59;;;;;;;3.42;2.50;;;;;;;5.99;35.18;97460.56;5115792;28;20015;-68
2022/03/13 06:18:27;;;;;;;3.22;2.63;;;;;;;7.45;31.16;97455.16;5115769;28;20107;-68
2022/03/13 06:20:53;;;;;;;2.72;2.53;;;;;;;8.82;29.44;97455.13;5115482;28;20074;-66
2022/03/13 06:23:19;;;;;;;3.03;2.15;;;;;;;9.79;27.09;97451.63;5115646;28;20432;-68
2022/03/13 06:25:45;;;;;;;5.60;2.55;;;;;;;10.77;26.03;97453.84;5115501;28;20027;-68
2022/03/13 06:28:11;;;;;;;2.70;2.38;;;;;;;11.50;24.01;97452.00;5115516;28;20542;-68
2022/03/13 06:30:37;;;;;;;3.60;2.88;;;;;;;12.12;21.14;97448.56;5115333;28;20023;-67
2022/03/13 06:33:03;;;;;;;4.03;2.80;;;;;;;12.49;21.17;97452.69;5115474;28;20124;-67
2022/03/13 06:35:30;;;;;;;2.90;2.50;;;;;;;13.21;20.19;97445.13;5115405;28;20495;-69
2022/03/13 06:37:56;;;;;;;4.75;2.50;;;;;;;13.67;19.63;97448.84;5115388;28;20024;-67
2022/03/13 06:40:24;;;;;;;2.92;2.20;;;;;;;14.17;19.15;97441.78;5115376;28;20470;-66
2022/03/13 06:42:52;;;;;;;4.18;2.50;;;;;;;14.65;19.00;97446.03;5115257;28;20427;-67
2022/03/13 06:45:18;;;;;;;2.85;2.40;;;;;;;14.44;20.07;97450.34;5115281;28;20401;-66
2022/03/13 06:47:46;;;;;;;2.95;2.58;;;;;;;14.20;20.20;97450.41;5115250;28;20053;-67
2022/03/13 06:50:15;;;;;;;3.05;2.75;;;;;;;13.94;20.40;97452.22;5115007;27;20074;-65
2022/03/13 06:52:42;;;;;;;4.72;2.85;;;;;;;14.53;19.27;97443.88;5114958;28;20048;-65
2022/03/13 06:55:09;;;;;;;3.33;2.92;;;;;;;14.82;19.03;97441.88;5114972;28;20074;-66
2022/03/13 06:57:34;;;;;;;3.47;3.17;;;;;;;15.25;19.17;97444.50;5114943;28;20105;-65
2022/03/13 07:00:00;;;;;;;4.45;3.17;;;;;;;15.41;19.08;97442.06;5114935;28;20069;-65
2022/03/13 07:02:26;;;;;;;3.33;2.65;;;;;;;15.22;19.33;97444.63;5114902;28;20055;-65
2022/03/13 07:04:52;;;;;;;4.13;2.92;;;;;;;15.03;19.40;97445.38;5114706;28;20031;-65
2022/03/13 07:07:18;;;;;;;3.17;2.80;;;;;;;14.64;17.94;97439.06;5114916;28;20019;-66
2022/03/13 07:09:44;;;;;;;2.58;2.35;;;;;;;14.19;17.34;97434.66;5114673;28;20024;-65
2022/03/13 07:12:11;;;;;;;2.38;2.13;;;;;;;13.28;18.49;97435.28;5114652;27;20024;-66
2022/03/13 07:14:42;;;;;;;2.85;2.55;;;;;;;13.03;18.93;97441.34;5114526;28;20026;-64
2022/03/13 07:17:07;;;;;;;2.88;2.42;;;;;;;12.93;19.18;97434.69;5114587;28;20084;-65
2022/03/13 07:19:34;;;;;;;5.53;3.40;;;;;;;12.68;19.92;97436.38;5114400;28;20028;-66
2022/03/13 07:21:59;;;;;;;2.85;2.60;;;;;;;12.44;20.03;97438.88;5114351;28;20078;-66
2022/03/13 07:24:25;;;;;;;5.80;2.60;;;;;;;11.87;19.78;97430.91;5114336;28;20489;-65
2022/03/13 07:26:50;;;;;;;3.13;2.60;;;;;;;11.61;19.77;97428.13;5114288;27;20059;-63
2022/03/13 07:29:18;;;;;;;3.55;2.80;;;;;;;11.42;21.02;97432.16;5114319;28;20054;-65
2022/03/13 07:31:44;;;;;;;3.10;2.70;;;;;;;10.92;20.42;97438.66;5114267;28;20517;-65
2022/03/13 07:34:09;;;;;;;3.50;2.65;;;;;;;10.76;20.95;97436.44;5114223;28;20031;-66
2022/03/13 07:36:35;;;;;;;4.03;2.78;;;;;;;10.49;22.18;97436.19;5114239;28;20590;-64
2022/03/13 07:39:03;;;;;;;3.60;2.90;;;;;;;10.28;22.98;97437.50;5114303;28;20522;-65
2022/03/13 07:41:29;;;;;;;5.47;3.15;;;;;;;10.08;21.71;97433.56;5113634;28;20508;-64
2022/03/13 07:43:54;;;;;;;4.65;2.83;;;;;;;10.03;21.62;97436.31;5114020;28;20059;-66
2022/03/13 07:46:20;;;;;;;5.00;2.50;;;;;;;9.90;20.88;97427.84;5113999;28;20486;-64
2022/03/13 07:48:46;;;;;;;3.15;2.40;;;;;;;9.40;22.89;97434.09;5114020;28;20027;-64
2022/03/13 07:51:12;;;;;;;7.20;2.75;;;;;;;9.15;23.19;97428.47;5113902;28;20402;-64
2022/03/13 07:53:38;;;;;;;3.05;2.67;;;;;;;8.77;23.56;97429.09;5112669;28;20026;-67
2022/03/13 07:56:05;;;;;;;3.53;2.78;;;;;;;8.58;22.96;97431.13;5113888;28;20019;-65
2022/03/13 07:58:32;;;;;;;2.72;2.30;;;;;;;8.15;23.84;97428.25;5113893;28;20023;-63
2022/03/13 08:00:58;;;;;;;5.25;2.80;;;;;;;8.36;23.16;97434.03;5113877;28;20027;-65
2022/03/13 08:03:29;;;;;;;4.50;3.35;;;;;;;8.71;23.40;97429.19;5113706;28;20076;-64
2022/03/13 08:05:56;;;;;;;3.80;3.10;;;;;;;9.14;23.18;97426.72;5113701;28;20034;-66
2022/03/13 08:08:21;;;;;;;3.58;3.03;;;;;;;9.31;22.92;97427.28;5113637;28;20489;-66
2022/03/13 08:10:47;;;;;;;4.47;3.10;;;;;;;9.20;24.37;97418.78;5113593;28;20030;-65
2022/03/13 08:13:13;;;;;;;4.63;2.65;;;;;;;9.50;23.09;97419.09;5113675;28;20020;-62
2022/03/13 08:15:39;;;;;;;3.38;2.97;;;;;;;9.83;20.96;97416.69;5113531;28;20039;-64
2022/03/13 08:18:05;;;;;;;4.32;3.03;;;;;;;9.76;21.02;97415.09;5113650;28;20031;-65
2022/03/13 08:20:31;;;;;;;3.70;2.90;;;;;;;9.37;22.38;97408.03;5113334;28;20043;-65
2022/03/13 08:22:56;;;;;;;4.57;3.05;;;;;;;9.49;22.09;97406.94;5113713;28;20441;-66
2022/03/13 08:25:24;;;;;;;4.68;3.00;;;;;;;9.15;22.71;97408.41;5113392;28;20093;-67
2022/03/13 08:27:49;;;;;;;4.43;3.03;;;;;;;9.10;23.76;97411.09;5113533;28;20473;-67
2022/03/13 08:30:15;;;;;;;4.82;2.88;;;;;;;9.21;22.18;97407.44;5113426;28;20015;-64
2022/03/13 08:32:41;;;;;;;6.38;3.28;;;;;;;9.03;21.71;97400.81;5113417;28;20015;-63
2022/03/13 08:35:07;;;;;;;3.63;2.83;;;;;;;8.70;23.66;97412.66;5113543;28;20546;-67
2022/03/13 08:37:34;;;;;;;3.38;2.95;;;;;;;8.49;21.89;97406.00;5113420;28;20076;-66
2022/03/13 08:39:59;;;;;;;4.10;3.15;;;;;;;8.44;23.65;97410.44;5113443;28;20036;-64
2022/03/13 08:42:25;;;;;;;4.50;2.88;;;;;;;8.46;24.26;97414.75;5113378;28;20128;-66
2022/03/13 08:44:51;;;;;;;2.83;2.53;;;;;;;8.16;24.35;97416.91;5113197;28;20031;-64
2022/03/13 08:47:16;;;;;;;2.47;2.25;;;;;;;8.14;23.84;97407.41;5113257;28;20051;-66
2022/03/13 08:49:42;;;;;;;3.70;2.78;;;;;;;7.95;23.98;97411.13;5113445;28;20103;-64
2022/03/13 08:52:08;;;;;;;3.40;2.90;;;;;;;8.22;22.28;97408.19;5113664;28;20016;-64
2022/03/13 08:54:34;;;;;;;3.58;2.90;;;;;;;8.69;22.32;97408.34;5116125;28;20024;-66
2022/03/13 08:56:59;;;;;;;3.30;2.83;;;;;;;8.75;24.04;97416.94;5117151;28;20053;-66
2022/03/13 08:59:25;;;;;;;3.85;2.75;;;;;;;8.30;23.19;97411.53;5117193;28;20393;-64
2022/03/13 09:01:51;;;;;;;3.35;2.70;;;;;;;8.34;22.42;97409.75;5117154;28;20027;-66
2022/03/13 09:04:18;;;;;;;3.90;2.67;;;;;;;8.36;23.83;97409.72;5116984;28;20103;-63
2022/03/13 09:06:44;;;;;;;5.85;2.70;;;;;;;8.07;24.46;97411.88;5116885;28;20027;-65
2022/03/13 09:09:10;;;;;;;3.35;2.85;;;;;;;7.81;23.85;97406.13;5117171;28;20028;-65
2022/03/13 09:11:36;;;;;;;3.40;2.55;;;;;;;7.50;23.70;97411.72;5116932;28;20023;-65
2022/03/13 09:14:03;;;;;;;3.28;2.35;;;;;;;7.34;23.04;97411.00;5117010;28;20035;-64
2022/03/13 09:16:31;;;;;;;3.67;2.70;;;;;;;7.10;22.65;97415.59;5116809;28;20062;-66
2022/03/13 09:18:57;;;;;;;4.10;2.70;;;;;;;6.75;25.00;97412.47;5116783;28;20028;-64
2022/03/13 09:21:23;;;;;;;3.60;3.03;;;;;;;6.82;25.40;97397.66;5116553;27;20044;-64
2022/03/13 09:23:49;;;;;;;6.40;3.33;;;;;;;7.11;26.34;97403.44;5116755;28;20511;-64
2022/03/13 09:26:15;;;;;;;4.40;2.90;;;;;;;7.55;25.76;97403.81;5116566;28;20030;-64
2022/03/13 09:28:41;;;;;;;4.57;2.90;;;;;;;7.39;23.88;97398.81;5116736;28;20447;-67
2022/03/13 09:31:08;;;;;;;3.50;2.63;;;;;;;6.95;24.49;97403.59;5116698;28;20024;-67
2022/03/13 09:33:34;;;;;;;4.18;3.13;;;;;;;6.70;24.23;97409.91;5116562;27;20031;-67
2022/03/13 09:36:00;;;;;;;4.38;2.45;;;;;;;6.57;23.36;97397.88;5116504;28;20072;-64
2022/03/13 09:38:26;;;;;;;3.47;2.47;;;;;;;6.44;26.05;97392.75;5115299;28;20042;-67
2022/03/13 09:40:52;;;;;;;3.15;2.63;;;;;;;6.74;26.48;97389.91;5116493;28;20031;-66
2022/03/13 09:43:19;;;;;;;3.75;2.78;;;;;;;6.93;26.18;97393.19;5116478;27;20036;-65
2022/03/13 09:45:46;;;;;;;3.17;2.70;;;;;;;7.37;26.12;97394.50;5116347;28;20028;-65
2022/03/13 09:48:15;;;;;;;3.50;2.40;;;;;;;7.57;23.15;97386.44;5116278;28;20023;-65
2022/03/13 09:50:42;;;;;;;4.78;2.72;;;;;;;7.56;24.12;97379.53;5116365;28;20026;-66
2022/03/13 09:53:08;;;;;;;3.35;2.40;;;;;;;7.59;25.36;97382.09;5116163;28;20076;-65
2022/03/13 09:55:34;;;;;;;3.55;2.92;;;;;;;7.72;23.11;97382.78;5116250;28;20020;-66
2022/03/13 09:58:00;;;;;;;4.05;2.80;;;;;;;7.78;22.98;97374.91;5116052;28;20377;-67
2022/03/13 10:00:26;;;;;;;3.83;2.70;;;;;;;7.88;23.25;97377.34;5116081;28;20023;-66
2022/03/13 10:02:53;;;;;;;3.10;2.65;;;;;;;8.09;22.86;97366.66;5115992;28;20042;-65
2022/03/13 10:05:20;;;;;;;3.63;2.80;;;;;;;7.93;25.28;97368.63;5115558;28;20036;-64
2022/03/13 10:07:55;;;;;;;4.93;3.05;;;;;;;7.91;25.47;97374.72;5116035;28;20129;-64
2022/03/13 10:10:28;;;;;;;2.63;2.40;;;;;;;8.03;24.53;97364.13;5116457;28;20034;-69
2022/03/13 10:12:54;;;;;;;5.68;3.30;;;;;;;8.10;23.03;97375.34;5115951;28;20015;-64
2022/03/13 10:15:20;;;;;;;4.07;3.20;;;;;;;7.86;23.67;97361.78;5115860;28;20023;-68
2022/03/13 10:17:48;;;;;;;5.82;3.08;;;;;;;7.32;22.95;97358.13;5115810;28;20556;-67
2022/03/13 10:20:25;;;;;;;4.55;3.22;;;;;;;7.22;25.09;97366.91;5115460;28;20036;-67
2022/03/13 10:22:59;;;;;;;5.10;2.92;;;;;;;6.98;25.02;97367.16;5115613;28;20024;-66
2022/03/13 10:25:30;;;;;;;5.32;3.70;;;;;;;7.03;24.11;97361.91;5115564;28;20031;-66
2022/03/13 10:28:10;;;;;;;4.57;2.72;;;;;;;7.05;24.85;97355.78;5115679;28;20015;-66
2022/03/13 10:30:37;;;;;;;;;;;;;;;7.19;24.45;97349.56;5116054;28;20028;-65
2022/03/13 10:33:02;;;;;;;5.20;3.20;;;;;;;7.41;24.90;97349.34;5115412;28;19912;-64
2022/03/13 10:35:28;;;;;;;3.92;2.53;;;;;;;7.55;25.17;97351.75;5115324;28;20387;-66
2022/03/13 10:37:55;;;;;;;4.78;3.15;;;;;;;7.46;25.28;97343.19;5115352;28;20020;-66
2022/03/13 10:40:22;;;;;;;3.65;3.22;;;;;;;7.54;27.25;97344.81;5115471;28;20028;-67
2022/03/13 10:42:49;;;;;;;4.70;3.42;;;;;;;7.86;26.35;97340.06;5115326;28;20023;-65
2022/03/13 10:45:42;;;;;;;5.15;2.90;;;;;;;7.86;27.52;97342.66;5115245;28;20028;-65
2022/03/13 10:48:21;;;;;;;5.78;3.65;;;;;;;7.94;26.81;97338.19;5115072;28;20035;-66
2022/03/13 10:50:50;;;;;;;4.22;3.35;;;;;;;7.98;27.03;97334.69;5115222;28;20108;-67
2022/03/13 10:53:18;;;;;;;5.25;4.00;;;;;;;7.64;26.00;97336.00;5115076;28;20023;-65
2022/03/13 10:55:44;;;;;;;4.25;2.92;;;;;;;7.91;25.31;97333.03;5115106;28;20038;-68
2022/03/13 10:58:11;;;;;;;4.43;3.70;;;;;;;7.99;26.31;97331.19;5114962;28;20030;-67
2022/03/13 11:00:38;;;;;;;3.83;2.80;;;;;;;7.74;25.63;97333.28;5113850;28;20020;-66
2022/03/13 11:03:14;;;;;;;4.68;3.38;;;;;;;7.49;27.63;97328.41;5115116;28;20095;-69
2022/03/13 11:05:41;;;;;;;5.22;3.78;;;;;;;7.75;27.00;97328.06;5114828;28;20380;-65
2022/03/13 11:08:07;;;;;;;5.22;3.42;;;;;;;7.93;25.89;97329.53;5114810;28;20069;-68
2022/03/13 11:10:37;;;;;;;4.45;3.22;;;;;;;8.17;25.50;97318.75;5114653;28;20061;-68
2022/03/13 11:13:04;;;;;;;5.45;3.35;;;;;;;8.28;25.83;97319.44;5114669;28;20099;-69
2022/03/13 11:15:30;;;;;;;3.83;3.47;;;;;;;8.24;25.85;97311.72;5114184;28;20028;-69
2022/03/13 11:17:57;;;;;;;5.57;4.07;;;;;;;8.21;24.94;97308.25;5114127;28;20076;-70
2022/03/13 11:20:24;;;;;;;4.35;3.63;;;;;;;8.17;24.47;97316.16;5114250;28;20516;-69
2022/03/13 11:22:50;;;;;;;5.15;3.42;;;;;;;8.07;21.69;97312.84;5114502;28;20172;-68
2022/03/13 11:25:17;;;;;;;6.40;4.07;;;;;;;7.69;23.16;97308.16;5114266;28;20111;-65
2022/03/13 11:27:45;;;;;;;5.90;4.07;;;;;;;7.43;23.58;97317.19;5114389;28;20016;-68
2022/03/13 11:30:29;;;;;;;7.18;4.07;;;;;;;7.44;24.06;97313.69;5114311;28;20020;-69
2022/03/13 11:32:57;;;;;;;7.55;3.97;;;;;;;7.39;23.81;97310.31;5114485;28;20093;-65
2022/03/13 11:35:27;;;;;;;4.22;3.53;;;;;;;7.22;24.00;97304.44;5114333;28;20026;-66